Time;durP1;ratioP1;P1;durP2;ratioP2;P2;SDS_P1;SDS_P2;PMS_P1;PMS_P2;Temp;Humidity;BMP_temperature;BMP_pressure;BME280_temperature;BME280_humidity;BME280_pressure;Samples;Min_cycle;Max_cycle;Signal;HPM_P1;HPM_P2
2021/04/28 00:00:27;;;;;;;6.47;4.00;;;;;;;2.30;61.04;100386.53;4970721;28;20242;-70
2021/04/28 00:02:53;;;;;;;6.13;3.57;;;;;;;2.28;60.52;100387.34;4969889;28;20664;-70
2021/04/28 00:05:20;;;;;;;7.53;4.10;;;;;;;2.24;60.42;100382.22;4973686;28;20210;-70
2021/04/28 00:07:47;;;;;;;6.37;3.37;;;;;;;2.22;60.58;100373.63;4969893;28;20201;-74
2021/04/28 00:10:14;;;;;;;7.00;3.90;;;;;;;2.20;61.99;100373.63;4969948;28;20233;-72
2021/04/28 00:12:40;;;;;;;9.03;4.10;;;;;;;2.14;61.00;100377.88;4970785;28;20214;-73
2021/04/28 00:15:11;;;;;;;6.50;3.90;;;;;;;2.09;61.12;100372.69;4970329;28;20199;-75
2021/04/28 00:17:37;;;;;;;9.90;4.57;;;;;;;2.09;61.51;100370.13;4967454;28;20210;-72
2021/04/28 00:20:05;;;;;;;9.03;4.40;;;;;;;2.07;62.87;100359.84;4970615;28;20214;-73
2021/04/28 00:22:31;;;;;;;7.50;4.10;;;;;;;2.00;61.36;100355.50;4970540;28;20203;-72
2021/04/28 00:24:57;;;;;;;7.53;3.60;;;;;;;1.99;61.42;100364.09;4970394;28;20198;-74
2021/04/28 00:27:23;;;;;;;6.67;4.23;;;;;;;1.99;61.46;100356.38;4970077;28;20207;-74
2021/04/28 00:29:49;;;;;;;6.50;3.80;;;;;;;1.99;63.08;100350.41;4967409;28;20225;-72
2021/04/28 00:32:16;;;;;;;6.60;3.73;;;;;;;1.97;61.77;100354.66;4969659;28;20238;-73
2021/04/28 00:34:42;;;;;;;8.50;4.03;;;;;;;1.93;61.76;100353.78;4970882;28;20663;-72
2021/04/28 00:37:08;;;;;;;6.93;3.90;;;;;;;1.92;61.97;100349.50;4976141;28;20241;-73
2021/04/28 00:39:34;;;;;;;5.27;3.43;;;;;;;1.91;61.76;100355.47;4970761;28;20365;-74
2021/04/28 00:42:00;;;;;;;7.17;3.67;;;;;;;1.88;63.42;100352.88;4975241;28;20214;-74
2021/04/28 00:44:34;;;;;;;7.70;4.47;;;;;;;1.86;64.97;100352.88;4974758;28;20206;-74
2021/04/28 00:47:01;;;;;;;8.77;4.50;;;;;;;1.83;64.04;100352.00;4973401;28;20208;-72
2021/04/28 00:49:28;;;;;;;8.03;4.50;;;;;;;1.81;63.36;100349.44;4970815;28;20250;-72
2021/04/28 00:51:54;;;;;;;6.13;3.90;;;;;;;1.82;62.73;100351.16;4982772;28;20540;-73
2021/04/28 00:54:21;;;;;;;7.77;3.70;;;;;;;1.83;65.52;100340.03;4972310;28;20281;-73
2021/04/28 00:56:47;;;;;;;7.03;4.27;;;;;;;1.78;63.32;100346.00;4970240;28;20206;-72
2021/04/28 00:59:16;;;;;;;8.47;4.20;;;;;;;1.78;62.58;100340.88;4982913;28;20288;-73
2021/04/28 01:01:41;;;;;;;8.37;4.20;;;;;;;1.78;62.29;100339.16;4968628;28;20224;-73
2021/04/28 01:04:08;;;;;;;6.63;3.87;;;;;;;1.75;64.62;100333.97;4974900;28;20201;-72
2021/04/28 01:06:35;;;;;;;9.57;4.40;;;;;;;1.67;63.93;100326.25;4965232;28;20207;-72
2021/04/28 01:09:02;;;;;;;6.53;4.10;;;;;;;1.66;65.28;100324.50;4962629;28;20219;-73
2021/04/28 01:11:30;;;;;;;9.17;4.27;;;;;;;1.59;63.41;100327.91;4964310;28;20219;-73
2021/04/28 01:13:59;;;;;;;9.37;4.17;;;;;;;1.58;64.96;100325.31;4968894;28;20203;-72
2021/04/28 01:16:26;;;;;;;9.10;4.20;;;;;;;1.54;65.50;100326.16;4970166;28;20520;-72
2021/04/28 01:18:55;;;;;;;8.37;4.03;;;;;;;1.51;69.39;100317.59;4968850;28;20226;-72
2021/04/28 01:21:21;;;;;;;7.97;4.30;;;;;;;1.41;64.64;100323.50;4974499;28;20205;-72
2021/04/28 01:23:48;;;;;;;5.90;3.67;;;;;;;1.39;65.28;100320.06;4966531;28;20692;-73
2021/04/28 01:26:18;;;;;;;7.03;4.03;;;;;;;1.39;64.59;100316.63;4971856;28;20212;-72
2021/04/28 01:28:45;;;;;;;6.67;4.00;;;;;;;1.40;64.08;100311.50;4975968;28;20566;-72
2021/04/28 01:31:13;;;;;;;9.67;4.37;;;;;;;1.43;64.44;100300.41;4969734;28;20210;-72
2021/04/28 01:33:45;;;;;;;7.03;4.20;;;;;;;1.45;63.97;100303.84;4968565;28;20556;-72
2021/04/28 01:36:16;;;;;;;9.47;4.70;;;;;;;1.57;64.09;100308.19;4963564;28;20201;-72
2021/04/28 01:38:45;;;;;;;9.37;4.17;;;;;;;1.52;63.63;100306.44;4973912;28;20236;-72
2021/04/28 01:41:13;;;;;;;6.30;3.77;;;;;;;1.50;64.12;100299.59;4961776;28;20198;-72
2021/04/28 01:43:41;;;;;;;7.20;4.40;;;;;;;1.48;64.36;100301.28;4975396;28;20213;-73
2021/04/28 01:46:09;;;;;;;7.77;4.70;;;;;;;1.46;64.46;100298.72;4967730;28;20194;-72
2021/04/28 01:48:37;;;;;;;8.87;4.47;;;;;;;1.44;64.48;100291.81;4974345;28;20252;-72
2021/04/28 01:51:05;;;;;;;8.87;4.93;;;;;;;1.46;64.69;100295.25;4964179;28;20250;-73
2021/04/28 01:53:32;;;;;;;7.87;4.50;;;;;;;1.47;64.92;100290.13;4968329;28;20210;-72
2021/04/28 01:55:59;;;;;;;7.77;4.40;;;;;;;1.51;63.91;100297.03;4967232;28;20222;-72
2021/04/28 01:58:47;;;;;;;8.47;4.37;;;;;;;1.57;65.58;100292.78;4965815;28;20304;-72
2021/04/28 02:01:45;;;;;;;7.50;4.40;;;;;;;1.51;63.87;100283.28;4969003;28;20206;-73
2021/04/28 02:04:11;;;;;;;8.93;4.23;;;;;;;1.51;63.61;100284.19;4967580;28;20285;-72
2021/04/28 02:06:38;;;;;;;11.27;4.60;;;;;;;1.52;63.83;100282.47;4967035;28;20210;-73
2021/04/28 02:09:06;;;;;;;7.93;4.30;;;;;;;1.48;65.02;100278.16;4968788;28;20233;-72
2021/04/28 02:11:32;;;;;;;7.87;4.57;;;;;;;1.42;64.34;100275.53;4966920;28;20615;-72
2021/04/28 02:14:02;;;;;;;8.17;4.70;;;;;;;1.42;63.82;100278.13;4968443;28;20210;-73
2021/04/28 02:16:47;;;;;;;7.07;4.37;;;;;;;1.40;63.89;100279.81;4971293;28;20210;-72
2021/04/28 02:19:15;;;;;;;9.53;4.73;;;;;;;1.41;63.99;100273.84;4970029;28;20565;-73
2021/04/28 02:21:47;;;;;;;7.37;4.37;;;;;;;1.39;64.47;100272.94;4971365;28;20224;-72
2021/04/28 02:24:24;;;;;;;9.77;4.90;;;;;;;1.46;64.58;100269.56;4967977;28;20209;-74
2021/04/28 02:26:55;;;;;;;10.10;4.93;;;;;;;1.47;65.14;100268.72;4966965;28;20222;-72
2021/04/28 02:29:23;;;;;;;7.67;4.63;;;;;;;1.47;64.76;100264.44;4968336;28;20304;-72
2021/04/28 02:31:50;;;;;;;8.20;4.40;;;;;;;1.50;64.89;100259.31;4961346;28;20226;-72
2021/04/28 02:34:20;;;;;;;7.90;4.63;;;;;;;1.53;64.67;100258.50;4968527;28;20209;-73
2021/04/28 02:36:57;;;;;;;9.40;5.07;;;;;;;1.58;64.79;100261.91;4971587;28;20210;-72
2021/04/28 02:39:43;;;;;;;10.70;5.00;;;;;;;1.61;64.34;100258.53;4972363;28;20761;-74
2021/04/28 02:42:10;;;;;;;8.77;4.83;;;;;;;1.63;63.73;100260.22;4971257;28;20957;-72
2021/04/28 02:44:38;;;;;;;8.57;4.57;;;;;;;1.65;66.63;100245.69;4976863;28;20201;-72
2021/04/28 02:47:09;;;;;;;8.23;5.10;;;;;;;1.66;67.75;100247.41;4970293;28;20198;-72
2021/04/28 02:49:38;;;;;;;10.23;4.70;;;;;;;1.61;64.68;100251.66;4978260;28;20588;-73
2021/04/28 02:52:19;;;;;;;14.30;5.33;;;;;;;1.59;65.33;100243.09;4971580;28;20245;-72
2021/04/28 02:54:48;;;;;;;8.70;4.83;;;;;;;1.55;64.12;100243.94;4970280;28;20219;-72
2021/04/28 02:57:21;;;;;;;10.47;5.37;;;;;;;1.50;64.45;100243.06;4977637;28;20198;-72
2021/04/28 02:59:51;;;;;;;10.67;5.10;;;;;;;1.45;64.60;100245.59;4966387;28;20218;-73
2021/04/28 03:02:19;;;;;;;8.90;4.93;;;;;;;1.42;64.44;100239.56;4969765;28;20193;-72
2021/04/28 03:04:45;;;;;;;10.23;5.30;;;;;;;1.42;64.46;100242.16;4972767;28;20203;-73
2021/04/28 03:07:28;;;;;;;10.47;5.70;;;;;;;1.39;64.69;100236.97;4967413;28;20241;-72
2021/04/28 03:09:55;;;;;;;10.00;5.30;;;;;;;1.36;65.09;100247.25;4965777;28;20222;-72
2021/04/28 03:12:22;;;;;;;7.27;4.53;;;;;;;1.32;65.11;100243.81;4970152;28;20670;-73
2021/04/28 03:14:53;;;;;;;8.80;4.87;;;;;;;1.27;65.25;100237.81;4967084;28;20205;-73
2021/04/28 03:17:21;;;;;;;7.93;4.67;;;;;;;1.26;65.30;100233.50;4969936;28;20199;-73
2021/04/28 03:19:48;;;;;;;13.10;5.40;;;;;;;1.25;65.65;100234.34;4972617;28;20221;-75
2021/04/28 03:22:15;;;;;;;8.03;5.20;;;;;;;1.23;65.88;100226.66;4970275;28;20729;-72
2021/04/28 03:24:43;;;;;;;8.20;5.03;;;;;;;1.26;66.38;100234.34;4970466;28;20206;-72
2021/04/28 03:27:11;;;;;;;9.17;4.77;;;;;;;1.25;65.95;100234.34;4967112;28;20233;-72
2021/04/28 03:29:43;;;;;;;8.47;4.90;;;;;;;1.27;66.70;100236.06;4970381;28;20606;-75
2021/04/28 03:32:10;;;;;;;12.77;6.03;;;;;;;1.29;65.95;100233.53;4956626;28;20979;-73
2021/04/28 03:34:40;;;;;;;11.90;5.13;;;;;;;1.30;65.63;100227.50;4972859;28;20670;-74
2021/04/28 03:37:06;;;;;;;11.20;6.00;;;;;;;1.29;65.92;100225.81;4973423;28;20224;-74
2021/04/28 03:39:44;;;;;;;9.47;5.03;;;;;;;1.27;65.73;100223.25;4972160;28;20214;-74
2021/04/28 03:42:10;;;;;;;12.00;5.87;;;;;;;1.29;67.34;100228.38;4971839;28;20234;-73
2021/04/28 03:44:38;;;;;;;7.53;4.90;;;;;;;1.26;65.93;100228.38;4970903;28;20198;-72
2021/04/28 03:47:05;;;;;;;11.33;5.60;;;;;;;1.22;65.63;100237.75;4969335;28;20201;-74
2021/04/28 03:49:35;;;;;;;9.53;5.47;;;;;;;1.20;65.63;100230.91;4969360;28;20241;-73
2021/04/28 03:52:01;;;;;;;11.60;5.47;;;;;;;1.21;65.45;100235.19;4968474;28;20583;-72
2021/04/28 03:54:50;;;;;;;10.33;5.93;;;;;;;1.22;65.63;100231.78;4972292;28;20213;-72
2021/04/28 03:57:15;;;;;;;13.03;5.77;;;;;;;1.21;65.90;100230.03;4970452;28;20202;-72
2021/04/28 03:59:42;;;;;;;8.27;5.67;;;;;;;1.22;66.01;100234.34;4968948;28;20246;-72
2021/04/28 04:02:08;;;;;;;10.63;5.30;;;;;;;1.24;65.48;100236.06;4970538;28;20284;-73
2021/04/28 04:05:04;;;;;;;10.03;5.70;;;;;;;1.28;65.53;100235.22;4968658;28;20194;-73
2021/04/28 04:07:54;;;;;;;11.77;5.67;;;;;;;1.29;65.16;100236.09;4972226;28;20222;-73
2021/04/28 04:10:30;;;;;;;11.33;6.00;;;;;;;1.32;65.23;100242.09;4970488;28;20260;-73
2021/04/28 04:12:56;;;;;;;11.73;6.27;;;;;;;1.31;65.33;100242.09;4968877;28;20222;-72
2021/04/28 04:15:23;;;;;;;13.40;6.33;;;;;;;1.31;65.14;100242.94;4969162;28;20218;-73
2021/04/28 04:17:50;;;;;;;10.17;5.57;;;;;;;1.33;65.22;100241.22;4969884;28;20258;-72
2021/04/28 04:20:22;;;;;;;11.13;6.37;;;;;;;1.33;65.41;100241.22;4972808;28;20280;-72
2021/04/28 04:22:57;;;;;;;13.80;5.83;;;;;;;1.36;65.13;100248.13;4970018;28;21015;-73
2021/04/28 04:25:33;;;;;;;9.37;5.70;;;;;;;1.40;65.15;100242.13;4971362;28;20245;-72
2021/04/28 04:27:59;;;;;;;11.23;6.17;;;;;;;1.45;64.87;100249.88;4971437;28;20206;-72
2021/04/28 04:30:50;;;;;;;10.17;5.90;;;;;;;1.44;64.72;100251.59;4971228;28;20215;-72
2021/04/28 04:33:35;;;;;;;9.27;5.93;;;;;;;1.47;65.00;100251.59;4968719;28;20561;-73
2021/04/28 04:36:20;;;;;;;12.67;6.07;;;;;;;1.51;66.54;100252.47;4963159;28;20206;-72
2021/04/28 04:39:18;;;;;;;11.13;6.10;;;;;;;1.52;65.06;100256.75;4968653;28;20230;-72
2021/04/28 04:42:04;;;;;;;14.77;6.37;;;;;;;1.52;64.46;100260.19;4960057;28;20226;-72
2021/04/28 04:44:45;;;;;;;10.97;6.03;;;;;;;1.53;64.76;100263.63;4968969;28;20261;-72
2021/04/28 04:47:13;;;;;;;10.53;5.60;;;;;;;1.52;64.08;100256.75;4967879;28;20667;-72
2021/04/28 04:49:39;;;;;;;12.63;6.37;;;;;;;1.51;64.60;100255.03;4968921;28;20276;-72
2021/04/28 04:52:06;;;;;;;13.47;6.07;;;;;;;1.50;65.23;100256.75;4968062;28;20549;-72
2021/04/28 04:54:32;;;;;;;12.77;6.00;;;;;;;1.51;64.77;100253.34;4964366;28;21034;-73
2021/04/28 04:56:58;;;;;;;11.53;5.80;;;;;;;1.54;64.75;100264.47;4975293;28;20238;-72
2021/04/28 04:59:25;;;;;;;9.97;5.67;;;;;;;1.57;64.56;100261.94;4969093;28;20227;-72
2021/04/28 05:01:51;;;;;;;8.07;5.43;;;;;;;1.60;64.57;100257.66;4967853;28;20218;-74
2021/04/28 05:04:17;;;;;;;10.73;5.90;;;;;;;1.64;64.60;100255.97;4969062;28;20649;-74
2021/04/28 05:06:43;;;;;;;15.33;6.07;;;;;;;1.68;64.21;100255.13;4971399;28;20210;-72
2021/04/28 05:09:09;;;;;;;14.20;6.33;;;;;;;1.77;64.42;100257.72;4970230;28;20228;-72
2021/04/28 05:11:35;;;;;;;11.63;6.63;;;;;;;1.84;64.21;100261.19;4970356;28;20217;-72
2021/04/28 05:14:02;;;;;;;12.70;5.57;;;;;;;1.90;64.55;100248.38;4971299;28;20695;-73
2021/04/28 05:16:28;;;;;;;13.07;6.83;;;;;;;1.96;64.14;100248.38;4966127;28;20204;-72
2021/04/28 05:18:54;;;;;;;11.67;6.50;;;;;;;2.02;63.62;100245.81;4963239;28;20226;-72
2021/04/28 05:21:21;;;;;;;11.47;5.90;;;;;;;2.20;64.22;100245.00;4966164;28;20299;-71
2021/04/28 05:23:48;;;;;;;12.57;6.10;;;;;;;2.34;63.42;100245.03;4963113;28;20276;-73
2021/04/28 05:26:30;;;;;;;11.40;5.80;;;;;;;2.47;63.15;100257.03;4965813;28;20256;-73
2021/04/28 05:28:56;;;;;;;11.30;5.93;;;;;;;2.53;62.74;100243.31;4967290;28;20216;-73
2021/04/28 05:31:23;;;;;;;12.83;6.23;;;;;;;2.54;62.23;100250.19;4965522;28;20244;-73
2021/04/28 05:33:49;;;;;;;11.53;6.13;;;;;;;2.54;62.92;100247.63;4969785;28;20199;-73
2021/04/28 05:36:15;;;;;;;10.83;6.13;;;;;;;2.59;62.40;100252.78;4968448;28;20201;-72
2021/04/28 05:38:41;;;;;;;11.83;6.23;;;;;;;2.62;62.43;100247.59;4970626;28;20258;-73
2021/04/28 05:41:07;;;;;;;12.47;6.60;;;;;;;2.67;62.11;100251.03;4970935;28;20218;-72
2021/04/28 05:43:34;;;;;;;14.37;7.10;;;;;;;2.77;62.13;100245.03;4964274;28;20270;-72
2021/04/28 05:46:01;;;;;;;13.27;6.83;;;;;;;2.86;62.81;100241.59;4969922;28;20575;-72
2021/04/28 05:48:27;;;;;;;14.00;6.97;;;;;;;2.92;62.24;100239.03;4967444;28;20237;-72
2021/04/28 05:50:54;;;;;;;14.27;7.00;;;;;;;3.00;62.41;100236.44;4964413;28;20248;-73
2021/04/28 05:53:20;;;;;;;12.10;6.63;;;;;;;3.13;61.50;100239.84;4972986;28;20863;-72
2021/04/28 05:55:46;;;;;;;16.70;6.43;;;;;;;3.20;60.94;100236.41;4967975;28;20200;-74
2021/04/28 05:58:12;;;;;;;13.30;6.37;;;;;;;3.27;60.94;100244.97;4971387;28;20209;-72
2021/04/28 06:00:39;;;;;;;15.50;7.20;;;;;;;3.39;61.11;100234.63;4961778;28;20204;-72
2021/04/28 06:03:05;;;;;;;12.23;6.63;;;;;;;3.55;60.09;100238.03;4966401;28;20260;-72
2021/04/28 06:05:32;;;;;;;13.77;6.93;;;;;;;3.68;60.00;100234.53;4969065;28;20206;-72
2021/04/28 06:07:57;;;;;;;12.27;6.47;;;;;;;3.74;59.66;100242.25;4966556;28;20303;-72
2021/04/28 06:10:24;;;;;;;13.43;7.00;;;;;;;3.69;59.32;100236.25;4966331;28;20278;-72
2021/04/28 06:12:50;;;;;;;14.33;6.63;;;;;;;3.65;59.20;100244.88;4967611;28;20252;-72
2021/04/28 06:15:17;;;;;;;13.10;7.30;;;;;;;3.65;59.13;100241.44;4963676;28;20201;-72
2021/04/28 06:17:45;;;;;;;11.20;6.73;;;;;;;3.67;59.33;100240.56;4969280;28;20216;-73
2021/04/28 06:20:13;;;;;;;14.03;6.90;;;;;;;3.68;59.06;100231.97;4967721;28;20294;-72
2021/04/28 06:22:39;;;;;;;16.17;6.47;;;;;;;3.71;59.44;100228.50;4967583;28;20205;-71
2021/04/28 06:25:06;;;;;;;14.07;6.63;;;;;;;3.74;59.19;100237.09;4965975;28;20561;-72
2021/04/28 06:27:32;;;;;;;12.57;6.90;;;;;;;3.80;59.56;100220.75;4969436;28;20202;-72
2021/04/28 06:29:58;;;;;;;13.23;6.77;;;;;;;3.83;58.67;100222.44;4962414;28;20214;-72
2021/04/28 06:32:24;;;;;;;13.23;7.03;;;;;;;3.85;59.15;100218.97;4968602;28;20316;-72
2021/04/28 06:34:51;;;;;;;15.03;7.30;;;;;;;3.97;58.89;100221.53;4966085;28;20225;-72
2021/04/28 06:37:17;;;;;;;10.43;6.63;;;;;;;4.08;58.63;100218.00;4970284;28;20279;-72
2021/04/28 06:39:43;;;;;;;13.13;6.90;;;;;;;4.23;58.88;100217.06;4967510;28;20257;-72
2021/04/28 06:42:09;;;;;;;11.77;6.17;;;;;;;4.42;58.96;100218.63;4965999;28;20202;-72
2021/04/28 06:44:35;;;;;;;13.73;6.57;;;;;;;4.60;57.32;100224.53;4968991;28;20198;-72
2021/04/28 06:47:01;;;;;;;14.77;7.37;;;;;;;4.72;56.73;100221.84;4967620;28;20208;-72
2021/04/28 06:49:27;;;;;;;13.90;6.97;;;;;;;4.82;56.68;100220.91;4965830;28;20412;-72
2021/04/28 06:51:54;;;;;;;13.33;7.50;;;;;;;4.98;56.52;100223.31;4968505;28;20217;-72
2021/04/28 06:54:20;;;;;;;14.30;7.03;;;;;;;5.12;56.57;100219.75;4968585;28;20690;-72
2021/04/28 06:56:46;;;;;;;13.33;7.90;;;;;;;5.24;55.69;100216.19;4963122;28;20229;-72
2021/04/28 06:59:14;;;;;;;15.93;8.07;;;;;;;5.43;55.91;100211.66;4969452;28;20722;-71
2021/04/28 07:01:40;;;;;;;15.07;7.63;;;;;;;5.57;54.41;100219.25;4967965;28;20202;-72
2021/04/28 07:04:07;;;;;;;12.43;6.90;;;;;;;5.72;55.63;100223.38;4968968;28;20235;-72
2021/04/28 07:06:33;;;;;;;13.50;8.23;;;;;;;5.88;54.34;100222.31;4965952;28;20214;-73
2021/04/28 07:09:00;;;;;;;15.40;7.70;;;;;;;6.02;53.59;100224.75;4961418;28;20221;-72
2021/04/28 07:11:26;;;;;;;15.43;8.53;;;;;;;6.15;53.11;100227.16;4960841;28;20210;-72
2021/04/28 07:13:52;;;;;;;13.90;7.80;;;;;;;6.21;53.74;100225.34;4962388;28;20202;-72
2021/04/28 07:16:18;;;;;;;16.73;7.90;;;;;;;6.34;53.28;100225.16;4970136;28;20223;-72
2021/04/28 07:18:44;;;;;;;16.80;8.57;;;;;;;6.48;53.31;100210.25;4965431;28;20214;-73
2021/04/28 07:21:11;;;;;;;16.67;8.13;;;;;;;6.57;53.95;100217.03;4969561;28;20205;-73
2021/04/28 07:23:37;;;;;;;17.00;8.90;;;;;;;6.67;53.27;100213.41;4970226;28;20206;-73
2021/04/28 07:26:04;;;;;;;14.37;8.03;;;;;;;6.76;53.03;100215.84;4977332;28;20233;-74
2021/04/28 07:28:31;;;;;;;16.20;8.90;;;;;;;6.86;52.43;100218.25;4980493;28;20240;-74
2021/04/28 07:30:57;;;;;;;14.57;8.00;;;;;;;6.91;52.11;100214.75;4972165;28;20217;-72
2021/04/28 07:33:23;;;;;;;14.43;8.13;;;;;;;6.98;51.90;100218.94;4976789;28;20770;-73
2021/04/28 07:35:49;;;;;;;13.67;8.07;;;;;;;7.04;51.34;100220.56;4972237;28;20206;-72
2021/04/28 07:38:15;;;;;;;14.63;8.07;;;;;;;7.10;51.37;100219.56;4970857;28;20256;-73
2021/04/28 07:40:41;;;;;;;14.60;8.57;;;;;;;7.13;51.13;100222.97;4968773;28;20209;-73
2021/04/28 07:43:07;;;;;;;11.97;7.70;;;;;;;7.21;51.06;100222.81;4971762;28;20208;-74
2021/04/28 07:45:35;;;;;;;14.70;8.47;;;;;;;7.30;50.82;100219.19;4968640;28;20198;-73
2021/04/28 07:48:05;;;;;;;16.23;8.73;;;;;;;7.41;51.00;100219.84;4969832;28;20190;-73
2021/04/28 07:50:31;;;;;;;15.27;9.23;;;;;;;7.52;51.06;100215.31;4966247;28;20234;-72
2021/04/28 07:52:57;;;;;;;15.47;9.10;;;;;;;7.65;51.21;100213.34;4967639;28;20254;-72
2021/04/28 07:55:23;;;;;;;15.37;7.63;;;;;;;7.67;50.27;100214.16;4971191;28;20231;-73
2021/04/28 07:57:49;;;;;;;14.67;8.03;;;;;;;7.71;50.56;100208.00;4969556;28;20615;-72
2021/04/28 08:00:18;;;;;;;13.63;8.30;;;;;;;7.78;50.42;100214.75;4967567;28;20230;-73
2021/04/28 08:02:44;;;;;;;16.97;8.73;;;;;;;7.77;50.55;100209.59;4961390;28;20754;-73
2021/04/28 08:05:11;;;;;;;15.07;8.40;;;;;;;7.83;50.31;100214.69;4964268;28;20285;-73
2021/04/28 08:07:37;;;;;;;12.23;7.50;;;;;;;7.84;49.88;100210.34;4965866;28;20202;-72
2021/04/28 08:10:05;;;;;;;14.97;8.23;;;;;;;7.87;50.36;100208.53;4964550;28;20852;-72
2021/04/28 08:12:31;;;;;;;11.63;7.30;;;;;;;7.95;50.24;100203.19;4969096;28;20221;-72
2021/04/28 08:14:57;;;;;;;15.37;8.80;;;;;;;8.06;49.96;100215.94;4974548;28;20209;-72
2021/04/28 08:17:23;;;;;;;15.97;8.90;;;;;;;8.13;49.51;100213.16;4975401;28;20556;-75
2021/04/28 08:19:49;;;;;;;15.20;8.43;;;;;;;8.34;50.82;100205.75;4971574;28;20226;-73
2021/04/28 08:22:16;;;;;;;14.50;7.80;;;;;;;8.75;49.43;100203.91;4963573;28;20767;-73
2021/04/28 08:24:42;;;;;;;16.27;8.37;;;;;;;9.08;47.91;100203.94;4969076;28;20201;-74
2021/04/28 08:27:08;;;;;;;15.63;8.70;;;;;;;9.37;47.22;100208.34;4967521;28;20278;-73
2021/04/28 08:29:34;;;;;;;14.80;9.10;;;;;;;9.57;49.00;100201.72;4966926;28;20218;-74
2021/04/28 08:32:00;;;;;;;17.10;9.00;;;;;;;9.84;48.58;100205.28;4968563;28;20216;-73
2021/04/28 08:34:27;;;;;;;17.37;9.30;;;;;;;10.02;46.49;100206.47;4967177;28;21008;-73
2021/04/28 08:36:53;;;;;;;19.77;8.93;;;;;;;10.10;45.71;100207.09;4961844;28;20200;-74
2021/04/28 08:39:19;;;;;;;14.97;8.33;;;;;;;10.10;45.92;100208.84;4968023;28;20251;-73
2021/04/28 08:41:47;;;;;;;13.57;8.73;;;;;;;10.36;47.72;100200.22;4962855;28;20260;-73
2021/04/28 08:44:13;;;;;;;11.57;8.03;;;;;;;10.59;46.78;100208.16;4962116;28;20801;-75
2021/04/28 08:46:39;;;;;;;17.37;8.07;;;;;;;10.63;44.08;100205.47;4957958;28;20202;-74
2021/04/28 08:49:05;;;;;;;13.97;8.07;;;;;;;10.59;44.56;100195.13;4964003;28;20576;-75
2021/04/28 08:51:32;;;;;;;14.43;8.07;;;;;;;10.73;45.20;100191.19;4956611;28;20220;-73
2021/04/28 08:53:58;;;;;;;14.17;8.63;;;;;;;10.86;47.60;100182.06;4962214;28;20702;-73
2021/04/28 08:56:25;;;;;;;13.40;7.80;;;;;;;11.05;44.69;100194.50;4963193;28;20560;-73
2021/04/28 08:58:51;;;;;;;16.60;8.73;;;;;;;11.10;44.50;100182.97;4962845;28;20334;-72
2021/04/28 09:01:27;;;;;;;12.33;8.03;;;;;;;11.24;45.87;100174.66;4964619;28;20212;-73
2021/04/28 09:03:54;;;;;;;13.47;7.80;;;;;;;11.36;44.78;100173.34;4958267;28;20202;-75
2021/04/28 09:06:27;;;;;;;12.30;7.60;;;;;;;11.39;45.82;100170.63;4955775;28;20211;-73
2021/04/28 09:08:54;;;;;;;15.70;8.23;;;;;;;11.56;43.80;100168.25;4959830;28;20273;-73
2021/04/28 09:11:38;;;;;;;17.77;8.73;;;;;;;11.73;43.19;100166.75;4966174;28;20214;-73
2021/04/28 09:14:05;;;;;;;14.77;8.07;;;;;;;11.72;43.65;100165.91;4964491;28;20194;-73
2021/04/28 09:16:31;;;;;;;17.33;9.07;;;;;;;11.88;44.19;100160.09;4967535;28;20630;-73
2021/04/28 09:18:57;;;;;;;15.30;8.57;;;;;;;11.95;43.33;100158.13;4968822;28;20734;-74
2021/04/28 09:22:01;;;;;;;13.27;8.40;;;;;;;12.37;42.64;100150.34;4969389;28;20283;-73
2021/04/28 09:24:48;;;;;;;11.93;8.13;;;;;;;12.40;42.58;100144.97;4965291;28;20289;-73
2021/04/28 09:27:35;;;;;;;14.43;8.20;;;;;;;12.59;43.38;100146.81;4961107;28;20209;-73
2021/04/28 09:30:24;;;;;;;14.90;8.47;;;;;;;12.61;42.51;100140.63;4967196;28;20230;-73
2021/04/28 09:33:02;;;;;;;13.10;8.37;;;;;;;12.82;42.26;100141.47;4966692;28;20329;-73
2021/04/28 09:35:28;;;;;;;12.63;7.77;;;;;;;12.93;42.48;100130.53;4962630;28;20202;-72
2021/04/28 09:37:56;;;;;;;17.17;8.83;;;;;;;12.94;41.37;100134.00;4964625;28;20217;-73
2021/04/28 09:40:39;;;;;;;13.60;7.97;;;;;;;13.13;41.66;100127.03;4965804;28;20218;-72
2021/04/28 09:43:05;;;;;;;14.57;8.20;;;;;;;13.38;41.96;100121.56;4961760;28;20206;-72
2021/04/28 09:45:39;;;;;;;12.00;7.80;;;;;;;13.47;41.02;100117.66;4968296;28;20217;-71
2021/04/28 09:48:05;;;;;;;13.30;8.27;;;;;;;13.51;40.59;100114.00;4967605;28;20190;-73
2021/04/28 09:50:31;;;;;;;16.20;8.03;;;;;;;13.55;40.54;100112.94;4965132;28;20204;-73
2021/04/28 09:52:57;;;;;;;12.90;7.07;;;;;;;13.69;40.53;100121.94;4970971;28;20199;-72
2021/04/28 09:55:25;;;;;;;13.13;7.50;;;;;;;13.64;40.45;100116.91;4961867;28;20198;-72
2021/04/28 09:57:52;;;;;;;12.60;7.70;;;;;;;13.85;40.52;100101.94;4968917;28;20196;-72
2021/04/28 10:00:20;;;;;;;12.13;7.20;;;;;;;13.85;39.95;100107.19;4963386;28;20590;-71
2021/04/28 10:02:54;;;;;;;12.20;7.97;;;;;;;14.06;40.99;100104.44;4967200;28;20284;-72
2021/04/28 10:05:23;;;;;;;12.17;7.47;;;;;;;14.18;40.42;100091.56;4964902;28;20209;-72
2021/04/28 10:07:51;;;;;;;11.23;7.57;;;;;;;14.26;40.61;100100.84;4965606;28;20212;-72
2021/04/28 10:10:19;;;;;;;11.43;7.60;;;;;;;14.25;41.14;100097.38;4965614;28;20221;-71
2021/04/28 10:12:46;;;;;;;14.73;7.87;;;;;;;14.39;40.31;100094.06;4965988;28;20853;-71
2021/04/28 10:15:13;;;;;;;12.23;8.00;;;;;;;14.31;40.57;100091.81;4960375;28;20416;-73
2021/04/28 10:17:39;;;;;;;12.50;7.47;;;;;;;14.52;41.48;100086.41;4961235;28;20209;-71
2021/04/28 10:20:08;;;;;;;10.73;7.10;;;;;;;14.60;40.99;100075.53;4965807;28;20687;-71
2021/04/28 10:22:41;;;;;;;10.23;6.47;;;;;;;14.86;42.66;100076.81;4966088;28;20256;-71
2021/04/28 10:25:08;;;;;;;10.37;6.50;;;;;;;15.05;41.29;100079.31;4968629;28;20397;-72
2021/04/28 10:27:35;;;;;;;12.50;7.07;;;;;;;15.26;41.29;100079.94;4967879;28;20194;-72
2021/04/28 10:30:02;;;;;;;12.13;7.00;;;;;;;15.49;40.20;100089.19;4962158;28;20240;-72
2021/04/28 10:32:28;;;;;;;10.70;6.60;;;;;;;15.63;42.45;100076.13;4963215;28;20249;-71
2021/04/28 10:34:59;;;;;;;11.77;7.13;;;;;;;15.56;41.17;100079.19;4959690;28;20233;-72
2021/04/28 10:37:30;;;;;;;12.17;6.60;;;;;;;15.63;41.49;100076.13;4965539;28;20209;-72
2021/04/28 10:39:57;;;;;;;11.33;6.70;;;;;;;15.59;39.20;100066.72;4965595;28;20594;-73
2021/04/28 10:42:25;;;;;;;9.97;6.13;;;;;;;15.76;40.03;100065.84;4960828;28;20194;-73
2021/04/28 10:44:52;;;;;;;9.47;6.30;;;;;;;15.98;40.18;100057.53;4961654;28;20296;-72
2021/04/28 10:47:30;;;;;;;10.80;6.60;;;;;;;16.20;41.13;100061.56;4963653;28;20202;-72
2021/04/28 10:50:23;;;;;;;11.80;6.03;;;;;;;16.22;39.44;100071.06;4966714;28;20241;-71
2021/04/28 10:52:54;;;;;;;10.07;6.23;;;;;;;16.14;40.92;100060.13;4937676;28;20255;-72
2021/04/28 10:55:49;;;;;;;8.87;6.50;;;;;;;16.36;38.86;100064.13;4957558;28;20204;-71
2021/04/28 10:58:41;;;;;;;9.73;6.13;;;;;;;16.72;38.12;100060.25;4970259;28;20201;-72
2021/04/28 11:01:18;;;;;;;10.73;6.43;;;;;;;16.97;39.92;100064.88;4953522;28;20632;-72
2021/04/28 11:03:48;;;;;;;9.03;6.40;;;;;;;17.14;40.92;100059.41;4963031;28;20200;-72
2021/04/28 11:06:30;;;;;;;10.00;6.60;;;;;;;17.13;39.69;100062.13;4968161;28;20737;-72
2021/04/28 11:09:21;;;;;;;11.03;6.60;;;;;;;17.17;41.54;100053.97;4968036;28;20222;-72
2021/04/28 11:11:53;;;;;;;10.07;6.30;;;;;;;17.16;41.33;100048.78;4965064;28;20214;-71
2021/04/28 11:14:44;;;;;;;8.67;6.03;;;;;;;16.88;39.24;100052.28;4967709;28;20202;-72
2021/04/28 11:17:27;;;;;;;9.27;6.90;;;;;;;16.38;38.75;100055.22;4967941;28;20277;-72
2021/04/28 11:19:55;;;;;;;8.47;6.27;;;;;;;16.51;40.00;100049.22;4971555;28;20288;-72
2021/04/28 11:22:24;;;;;;;8.70;6.30;;;;;;;16.55;40.48;100041.06;4969284;28;20197;-72
2021/04/28 11:25:07;;;;;;;11.00;7.17;;;;;;;16.63;40.45;100033.53;4969865;28;20623;-72
2021/04/28 11:28:01;;;;;;;10.40;6.27;;;;;;;16.78;40.98;100030.91;4971049;28;20212;-72
2021/04/28 11:30:45;;;;;;;8.80;6.20;;;;;;;16.73;40.82;100025.09;4969100;28;20225;-73
2021/04/28 11:33:38;;;;;;;8.97;5.97;;;;;;;17.16;41.07;100028.56;4968333;28;20549;-73
2021/04/28 11:36:09;;;;;;;8.97;6.17;;;;;;;17.46;40.13;100022.28;4963759;28;20208;-72
2021/04/28 11:38:38;;;;;;;8.83;6.00;;;;;;;17.63;40.04;100023.81;4960707;28;20606;-73